Time;durP1;ratioP1;P1;durP2;ratioP2;P2;SDS_P1;SDS_P2;PMS_P1;PMS_P2;Temp;Humidity;BMP_temperature;BMP_pressure;BME280_temperature;BME280_humidity;BME280_pressure;Samples;Min_cycle;Max_cycle;Signal;HPM_P1;HPM_P2
2021/12/19 00:10:07;;;;;;;;;34.00;26.75;;;;;7.96;76.02;102730.28;5032162;28;45711;-81
2021/12/19 00:12:33;;;;;;;;;27.75;25.00;;;;;7.81;76.18;102708.97;5031733;28;45699;-82
2021/12/19 00:14:58;;;;;;;;;36.50;27.50;;;;;7.93;76.23;102722.56;5046204;28;45981;-82
2021/12/19 00:17:24;;;;;;;;;27.75;24.00;;;;;7.94;76.16;102720.78;5052197;28;45810;-82
2021/12/19 00:19:49;;;;;;;;;32.00;25.50;;;;;7.70;76.20;102679.69;5055516;28;45659;-81
2021/12/19 00:22:14;;;;;;;;;41.25;28.00;;;;;7.93;76.32;102713.88;5055610;28;46449;-81
2021/12/19 00:24:40;;;;;;;;;30.75;25.25;;;;;7.93;76.31;102704.28;5055451;28;45635;-83
2021/12/19 00:27:05;;;;;;;;;28.50;24.50;;;;;7.84;76.21;102701.91;5056050;28;46160;-82
2021/12/19 00:29:31;;;;;;;;;30.25;25.25;;;;;7.94;76.30;102694.69;5056216;28;45628;-82
2021/12/19 00:31:56;;;;;;;;;37.00;25.75;;;;;7.80;76.13;102681.16;5074453;28;47656;-82
2021/12/19 00:34:22;;;;;;;;;30.75;25.50;;;;;7.96;76.39;102698.13;5058370;28;45604;-82
2021/12/19 00:36:47;;;;;;;;;35.00;27.00;;;;;7.85;76.33;102674.06;5058285;28;45880;-82
2021/12/19 00:39:13;;;;;;;;;31.50;26.00;;;;;7.98;76.36;102693.72;5056668;28;45652;-82
2021/12/19 00:45:05;;;;;;;;;27.50;24.00;;;;;7.92;76.36;102666.03;5086574;27;46129;-83
2021/12/19 00:47:33;;;;;;;;;32.25;26.50;;;;;7.82;76.26;102656.75;5098781;27;45641;-81
2021/12/19 00:49:59;;;;;;;;;34.25;26.75;;;;;7.97;76.33;102678.94;5098625;27;45613;-83
2021/12/19 00:52:26;;;;;;;;;34.75;25.00;;;;;7.88;76.37;102669.59;5079439;27;47511;-82
2021/12/19 00:54:52;;;;;;;;;39.50;29.50;;;;;7.95;76.29;102673.75;5098129;27;45670;-82
2021/12/19 00:57:17;;;;;;;;;29.25;19.25;;;;;7.90;76.31;102666.97;5097984;27;45655;-82
2021/12/19 00:59:43;;;;;;;;;25.00;21.75;;;;;7.85;76.15;102661.88;5079241;27;45629;-81
2021/12/19 01:02:08;;;;;;;;;25.50;24.00;;;;;7.95;76.17;102671.16;5097599;27;46482;-81
2021/12/19 01:04:33;;;;;;;;;34.50;23.75;;;;;7.96;76.33;102672.00;5097840;27;45688;-81
2021/12/19 01:07:01;;;;;;;;;28.00;21.00;;;;;7.91;76.49;102653.03;5098173;27;45642;-82
2021/12/19 01:09:27;;;;;;;;;27.50;23.75;;;;;7.97;76.17;102665.91;5097841;27;45528;-81
2021/12/19 01:15:16;;;;;;;;;27.00;24.75;;;;;7.98;76.25;102654.56;5096214;27;45790;-82
2021/12/19 01:17:41;;;;;;;;;22.00;19.25;;;;;8.05;76.33;102678.72;5080282;27;45897;-79
2021/12/19 01:20:13;;;;;;;;;23.25;19.00;;;;;8.03;76.17;102670.97;5100239;27;45784;-81
2021/12/19 01:22:39;;;;;;;;;26.25;22.00;;;;;8.03;76.24;102665.75;5099331;27;47413;-81
2021/12/19 01:25:04;;;;;;;;;28.00;22.75;;;;;8.01;76.25;102662.31;5099587;27;46168;-81
2021/12/19 01:27:30;;;;;;;;;25.00;21.25;;;;;7.99;76.29;102664.94;5098221;27;45585;-82
2021/12/19 01:29:55;;;;;;;;;28.00;21.75;;;;;7.97;76.32;102651.09;5097506;27;45924;-81
2021/12/19 01:32:21;;;;;;;;;27.25;21.75;;;;;7.94;76.25;102647.69;5097226;27;45546;-80
2021/12/19 01:34:46;;;;;;;;;34.75;25.50;;;;;7.94;76.00;102658.13;5061963;27;47299;-82
2021/12/19 01:37:12;;;;;;;;;31.25;22.75;;;;;8.01;76.12;102662.31;5078697;27;45674;-82
2021/12/19 01:39:38;;;;;;;;;31.00;21.25;;;;;7.99;76.36;102659.72;5097521;27;45784;-81
2021/12/19 01:45:31;;;;;;;;;23.00;19.00;;;;;7.93;76.33;102661.69;5097222;27;46234;-81
2021/12/19 01:47:58;;;;;;;;;23.50;21.25;;;;;7.91;76.24;102666.94;5097404;27;45650;-81
2021/12/19 01:50:25;;;;;;;;;20.75;17.75;;;;;7.89;76.53;102666.09;5078690;27;45944;-82
2021/12/19 01:52:51;;;;;;;;;26.50;22.50;;;;;7.90;76.29;102656.53;5096869;27;46607;-81
2021/12/19 01:55:17;;;;;;;;;21.00;19.00;;;;;7.78;76.52;102647.25;5097344;27;45523;-82
2021/12/19 01:57:43;;;;;;;;;25.00;18.75;;;;;7.87;76.50;102654.88;5097219;27;45603;-82
2021/12/19 02:00:19;;;;;;;;;22.25;19.00;;;;;7.79;76.37;102648.13;5097284;27;45499;-81
2021/12/19 02:02:45;;;;;;;;;27.50;16.25;;;;;7.68;76.44;102627.53;5096915;27;46530;-82
2021/12/19 02:05:10;;;;;;;;;18.00;17.75;;;;;7.84;76.32;102641.88;5096904;27;45658;-82
2021/12/19 02:07:35;;;;;;;;;20.75;17.75;;;;;7.83;76.48;102645.38;5078468;27;45643;-81
2021/12/19 02:10:03;;;;;;;;;19.50;14.25;;;;;7.86;76.65;102654.91;5097095;27;45743;-81
2021/12/19 02:15:50;;;;;;;;;24.25;19.00;;;;;7.82;76.69;102648.06;5095718;27;46532;-82
2021/12/19 02:18:18;;;;;;;;;26.00;21.00;;;;;7.57;76.46;102611.31;5097105;27;45571;-80
2021/12/19 02:20:50;;;;;;;;;19.25;16.25;;;;;7.78;76.84;102643.78;5097095;27;45608;-82
2021/12/19 02:23:16;;;;;;;;;17.00;14.75;;;;;7.62;76.90;102609.44;5096128;27;46600;-83
2021/12/19 02:25:42;;;;;;;;;16.50;12.00;;;;;7.76;76.69;102635.16;5096180;27;46223;-81
2021/12/19 02:28:08;;;;;;;;;18.50;12.50;;;;;7.68;76.46;102613.63;5096378;27;45595;-81
2021/12/19 02:30:34;;;;;;;;;18.75;13.25;;;;;7.76;76.65;102633.41;5096356;27;45701;-81
2021/12/19 02:33:00;;;;;;;;;19.00;16.75;;;;;7.78;76.64;102641.19;5096057;27;45622;-82
2021/12/19 02:35:30;;;;;;;;;15.25;13.00;;;;;7.75;76.80;102625.63;5095463;27;46458;-81
2021/12/19 02:48:30;;;;;;;;;20.00;16.50;;;;;7.60;76.90;102613.84;5097831;27;45878;-81
2021/12/19 02:50:57;;;;;;;;;10.00;6.25;;;;;7.65;76.88;102624.16;5101094;27;45541;-81
2021/12/19 02:53:31;;;;;;;;;22.50;15.75;;;;;7.60;77.17;102608.63;5102713;27;45742;-81
2021/12/19 02:55:58;;;;;;;;;22.25;14.50;;;;;7.60;77.14;102611.25;5101730;27;45922;-82
2021/12/19 02:58:23;;;;;;;;;17.00;12.50;;;;;7.58;76.74;102619.09;5105708;27;45535;-83
2021/12/19 03:00:50;;;;;;;;;26.50;15.50;;;;;7.58;77.01;102620.84;5112255;27;45438;-81
2021/12/19 03:03:16;;;;;;;;;18.00;16.00;;;;;7.58;77.01;102618.25;5111690;27;45622;-82
2021/12/19 03:05:41;;;;;;;;;15.00;13.75;;;;;7.55;77.17;102608.75;5112742;27;45701;-82
2021/12/19 03:08:08;;;;;;;;;16.00;10.25;;;;;7.39;77.11;102586.59;5118505;27;45225;-81
2021/12/19 03:19:24;;;;;;;;;16.00;13.00;;;;;7.50;77.24;102597.56;5098423;27;45552;-82
2021/12/19 03:21:49;;;;;;;;;15.00;14.25;;;;;7.53;77.38;102591.44;5105259;27;45715;-82
2021/12/19 03:24:15;;;;;;;;;18.75;14.25;;;;;7.48;77.12;102582.88;5096908;27;45492;-82
2021/12/19 03:26:40;;;;;;;;;19.50;17.00;;;;;7.39;77.26;102554.44;5096738;27;45582;-81
2021/12/19 03:29:06;;;;;;;;;22.00;17.50;;;;;7.59;77.15;102589.53;5096740;27;45666;-81
2021/12/19 03:31:31;;;;;;;;;22.25;18.50;;;;;7.56;77.19;102581.75;5096617;27;45542;-83
2021/12/19 03:33:57;;;;;;;;;29.50;19.00;;;;;7.60;77.16;102595.59;5099045;27;46625;-82
2021/12/19 03:36:23;;;;;;;;;22.50;18.50;;;;;7.49;77.10;102571.56;5098891;27;46277;-82
2021/12/19 03:38:49;;;;;;;;;25.00;18.50;;;;;7.62;77.18;102593.78;5095638;27;45593;-82
2021/12/19 03:41:22;;;;;;;;;22.00;18.75;;;;;7.48;77.20;102575.06;5095444;27;45704;-83
2021/12/19 03:43:49;;;;;;;;;22.25;17.25;;;;;7.62;77.22;102592.94;5095255;27;47411;-82
2021/12/19 03:46:15;;;;;;;;;18.00;17.50;;;;;7.64;77.19;102593.75;5095458;27;46256;-82
2021/12/19 03:48:40;;;;;;;;;30.75;20.75;;;;;7.50;77.28;102571.50;5076779;27;45813;-82
2021/12/19 03:51:06;;;;;;;;;22.25;16.50;;;;;7.68;77.54;102603.19;5095610;27;45639;-82
2021/12/19 03:53:32;;;;;;;;;18.50;15.00;;;;;7.51;77.41;102574.97;5095584;27;46227;-82
2021/12/19 03:55:58;;;;;;;;;21.25;19.00;;;;;7.62;77.34;102587.72;5095449;27;46516;-83
2021/12/19 03:58:23;;;;;;;;;21.00;18.25;;;;;7.48;77.21;102565.47;5095488;27;45463;-81
2021/12/19 04:00:50;;;;;;;;;20.25;14.25;;;;;7.68;77.24;102604.06;5096582;27;45670;-83
2021/12/19 04:03:21;;;;;;;;;22.00;18.00;;;;;7.67;77.24;102597.13;5095726;27;47174;-82
2021/12/19 04:05:48;;;;;;;;;25.25;14.50;;;;;7.65;77.28;102598.94;5095274;27;46149;-80
2021/12/19 04:08:15;;;;;;;;;17.50;14.00;;;;;7.58;77.25;102573.91;5095301;27;45960;-82
2021/12/19 04:10:41;;;;;;;;;20.50;17.75;;;;;7.63;77.20;102592.03;5095197;27;45512;-82
2021/12/19 04:16:28;;;;;;;;;18.50;14.50;;;;;7.56;77.34;102586.97;5098740;27;46101;-80
2021/12/19 04:18:54;;;;;;;;;19.75;13.00;;;;;7.52;77.33;102580.16;5100663;27;45520;-81
2021/12/19 04:21:19;;;;;;;;;19.75;16.25;;;;;7.37;77.43;102561.44;5100198;27;45647;-81
2021/12/19 04:23:45;;;;;;;;;20.50;15.25;;;;;7.40;77.08;102564.81;5097711;27;45473;-82
2021/12/19 04:26:10;;;;;;;;;16.75;14.25;;;;;7.35;77.28;102556.25;5097465;27;46327;-82
2021/12/19 04:28:35;;;;;;;;;17.00;13.75;;;;;7.27;77.34;102536.50;5096591;27;45511;-82
2021/12/19 04:31:03;;;;;;;;;15.75;13.25;;;;;7.49;77.39;102584.59;5094931;27;45635;-82
2021/12/19 04:33:29;;;;;;;;;13.50;10.25;;;;;7.31;77.51;102544.22;5094707;27;45680;-82
2021/12/19 04:36:00;;;;;;;;;13.50;10.50;;;;;7.25;77.55;102533.06;5094709;27;45768;-82
2021/12/19 04:53:02;;;;;;;;;15.75;12.00;;;;;7.41;77.51;102537.00;5094272;27;45642;-82
2021/12/19 04:55:58;;;;;;;;;21.00;17.00;;;;;7.45;77.22;102536.03;5094159;27;45527;-82
2021/12/19 05:06:07;;;;;;;;;17.00;13.00;;;;;7.50;77.42;102539.38;5097462;27;45629;-82
2021/12/19 05:16:32;;;;;;;;;12.75;9.00;;;;;7.51;77.33;102525.41;5097197;27;46324;-81
2021/12/19 05:19:05;;;;;;;;;16.50;7.50;;;;;7.59;77.38;102546.94;5097059;27;46324;-82
2021/12/19 05:21:30;;;;;;;;;13.75;11.25;;;;;7.59;77.46;102539.09;5097714;27;45663;-81
2021/12/19 05:26:25;;;;;;;;;15.00;11.00;;;;;7.59;77.36;102550.41;5079260;27;46448;-81
2021/12/19 05:28:52;;;;;;;;;10.25;7.00;;;;;7.53;77.35;102531.44;5097307;27;46154;-82
2021/12/19 05:31:19;;;;;;;;;10.25;9.25;;;;;7.58;77.14;102543.47;5097456;27;45582;-82
2021/12/19 05:33:46;;;;;;;;;12.00;10.25;;;;;7.53;77.46;102537.53;5097700;27;45678;-83
2021/12/19 05:46:54;;;;;;;;;10.00;9.00;;;;;7.67;77.30;102544.09;5072741;27;45764;-81
2021/12/19 05:49:20;;;;;;;;;14.00;11.00;;;;;7.59;77.32;102515.63;5097205;27;46191;-81
2021/12/19 05:51:46;;;;;;;;;11.50;10.00;;;;;7.70;77.38;102533.59;5098924;27;45505;-82
2021/12/19 05:54:12;;;;;;;;;10.00;7.50;;;;;7.59;77.31;102519.09;5098383;27;45700;-82
2021/12/19 05:56:38;;;;;;;;;14.50;11.00;;;;;7.72;77.21;102534.41;5099038;27;46626;-83
2021/12/19 05:59:03;;;;;;;;;10.75;9.75;;;;;7.72;77.33;102531.81;5098359;27;46457;-81
2021/12/19 06:01:29;;;;;;;;;14.50;10.75;;;;;7.70;77.27;102534.44;5098133;27;45520;-82
2021/12/19 06:03:54;;;;;;;;;19.50;12.00;;;;;7.62;77.28;102525.09;5097987;27;45661;-83
2021/12/19 06:06:19;;;;;;;;;17.75;13.25;;;;;7.64;77.44;102523.31;5097295;27;46366;-82
2021/12/19 06:08:46;;;;;;;;;15.50;10.25;;;;;7.36;77.26;102484.97;5097714;27;45800;-82
2021/12/19 06:11:11;;;;;;;;;11.50;9.75;;;;;7.55;77.39;102534.88;5097270;27;45866;-80
2021/12/19 06:13:37;;;;;;;;;14.75;13.75;;;;;7.47;77.36;102526.41;5096924;27;45518;-80
2021/12/19 06:16:04;;;;;;;;;13.75;10.75;;;;;7.30;77.37;102495.56;5095548;27;46399;-82
2021/12/19 06:18:29;;;;;;;;;17.75;11.50;;;;;7.48;77.45;102523.75;5096610;27;46040;-80
2021/12/19 06:20:55;;;;;;;;;16.75;13.50;;;;;7.45;77.29;102515.19;5078380;27;45540;-81
2021/12/19 06:23:21;;;;;;;;;11.50;9.00;;;;;7.49;77.31;102517.66;5096796;27;45853;-82
2021/12/19 06:25:46;;;;;;;;;17.00;14.50;;;;;7.49;77.57;102522.88;5096746;27;46830;-82
2021/12/19 06:28:13;;;;;;;;;14.00;13.25;;;;;7.38;77.27;102495.38;5096538;27;45725;-82
2021/12/19 06:30:39;;;;;;;;;9.00;9.00;;;;;7.41;77.56;102498.72;5096606;27;45872;-82
2021/12/19 06:33:23;;;;;;;;;10.00;8.75;;;;;7.53;77.37;102515.81;5096711;27;45626;-81
2021/12/19 06:35:48;;;;;;;;;13.25;10.50;;;;;7.54;77.25;102515.78;5077615;27;48023;-80
2021/12/19 06:38:15;;;;;;;;;10.25;9.25;;;;;7.57;77.33;102520.03;5096302;27;46481;-81
2021/12/19 06:40:42;;;;;;;;;12.25;11.00;;;;;7.14;77.41;102447.34;5095920;27;45849;-82
2021/12/19 06:43:08;;;;;;;;;17.25;11.25;;;;;7.54;77.55;102515.78;5096635;27;45620;-81
2021/12/19 06:45:33;;;;;;;;;15.75;11.00;;;;;7.54;77.41;102510.56;5094566;27;48193;-82
2021/12/19 06:47:58;;;;;;;;;15.00;10.00;;;;;7.54;77.64;102513.16;5077947;27;45569;-82
2021/12/19 06:50:24;;;;;;;;;20.75;13.25;;;;;7.54;77.46;102513.16;5096184;27;45635;-82
2021/12/19 06:52:50;;;;;;;;;14.25;10.00;;;;;7.47;77.64;102502.94;5096241;27;45485;-83
2021/12/19 06:55:17;;;;;;;;;16.75;10.75;;;;;7.52;77.55;102519.31;5077958;27;46696;-83
2021/12/19 06:57:54;;;;;;;;;22.25;14.25;;;;;7.45;77.62;102510.78;5095964;27;46805;-83
2021/12/19 07:00:23;;;;;;;;;17.00;14.00;;;;;7.44;77.57;102519.53;5096253;27;45678;-82
2021/12/19 07:02:48;;;;;;;;;20.25;15.00;;;;;7.45;77.57;102531.66;5096313;27;45540;-82
2021/12/19 07:05:14;;;;;;;;;17.00;13.00;;;;;7.39;77.48;102524.00;5096095;27;45559;-82
2021/12/19 07:07:39;;;;;;;;;17.75;16.00;;;;;7.43;77.46;102530.84;5095736;27;45596;-82
2021/12/19 07:10:07;;;;;;;;;18.50;14.25;;;;;7.43;77.62;102535.22;5094550;27;46090;-82
2021/12/19 07:12:33;;;;;;;;;16.00;13.00;;;;;7.42;77.63;102529.13;5095984;27;45875;-82
2021/12/19 07:14:58;;;;;;;;;17.00;13.50;;;;;7.41;77.67;102523.94;5095841;27;45608;-82
2021/12/19 07:17:25;;;;;;;;;15.25;11.50;;;;;7.41;77.55;102523.94;5076985;27;48214;-80
2021/12/19 07:19:52;;;;;;;;;13.75;9.75;;;;;7.05;77.70;102473.66;5096352;27;45721;-82
2021/12/19 07:22:18;;;;;;;;;9.25;9.00;;;;;7.23;77.61;102495.78;5077947;27;45891;-82
2021/12/19 07:24:45;;;;;;;;;17.25;10.00;;;;;6.96;77.56;102451.34;5096349;27;45609;-81
2021/12/19 07:27:11;;;;;;;;;12.50;10.00;;;;;7.40;77.68;102527.44;5096179;27;46070;-82
2021/12/19 07:32:58;;;;;;;;;13.00;11.00;;;;;7.43;77.46;102522.16;5095082;27;45607;-80
2021/12/19 07:35:24;;;;;;;;;10.25;9.50;;;;;7.45;77.27;102523.00;5095703;27;46360;-82
2021/12/19 07:37:51;;;;;;;;;9.75;7.50;;;;;7.47;77.50;102510.75;5076854;27;46659;-77
2021/12/19 07:40:19;;;;;;;;;9.25;8.75;;;;;7.47;77.32;102502.94;5094783;27;45978;-76
2021/12/19 07:42:45;;;;;;;;;12.00;9.50;;;;;7.46;77.47;102502.06;5095060;27;45654;-74
2021/12/19 07:45:11;;;;;;;;;15.75;13.25;;;;;7.53;77.31;102506.22;5094743;27;46316;-76
2021/12/19 07:47:38;;;;;;;;;14.50;10.00;;;;;7.57;77.25;102512.19;5094379;27;46261;-78
2021/12/19 07:50:08;;;;;;;;;12.00;9.00;;;;;7.57;77.50;102512.19;5094382;27;45583;-80
2021/12/19 07:52:34;;;;;;;;;11.50;9.00;;;;;7.58;77.11;102508.69;5094978;27;45653;-78
2021/12/19 07:55:01;;;;;;;;;8.75;6.75;;;;;7.58;77.40;102514.78;5094460;27;46232;-73
2021/12/19 07:57:26;;;;;;;;;11.00;9.50;;;;;7.60;77.44;102514.75;5094322;27;46345;-77
2021/12/19 08:03:14;;;;;;;;;13.25;10.75;;;;;7.62;77.32;102522.50;5094790;27;45544;-76
2021/12/19 08:05:39;;;;;;;;;11.50;9.00;;;;;7.63;77.31;102521.59;5094405;27;46812;-76
2021/12/19 08:08:05;;;;;;;;;13.50;9.00;;;;;7.63;77.16;102519.84;5093397;27;46130;-76
2021/12/19 08:13:02;;;;;;;;;15.00;10.00;;;;;7.62;77.28;102509.47;5094372;27;45969;-78
2021/12/19 08:15:28;;;;;;;;;10.00;9.50;;;;;7.69;77.10;102522.31;5094361;27;46373;-78
2021/12/19 08:17:53;;;;;;;;;11.25;7.50;;;;;7.69;77.11;102518.84;5094237;27;45695;-77
2021/12/19 08:20:18;;;;;;;;;11.00;9.50;;;;;7.72;77.24;102519.59;5075792;27;45687;-77
2021/12/19 08:22:46;;;;;;;;;6.25;6.00;;;;;7.75;77.28;102522.13;5094323;27;45761;-76
2021/12/19 08:25:11;;;;;;;;;12.00;9.50;;;;;7.74;77.14;102516.94;5094613;27;45485;-77
2021/12/19 08:27:37;;;;;;;;;9.75;8.00;;;;;7.77;77.00;102515.13;5094419;27;46022;-77
2021/12/19 08:33:24;;;;;;;;;9.25;7.00;;;;;7.77;76.95;102515.13;5094748;27;45626;-78
2021/12/19 08:35:49;;;;;;;;;11.25;9.25;;;;;7.76;77.13;102517.78;5094344;27;46379;-77
2021/12/19 08:38:14;;;;;;;;;13.00;10.00;;;;;7.74;77.21;102514.34;5093785;27;46000;-79
2021/12/19 08:40:41;;;;;;;;;10.75;8.00;;;;;7.74;77.15;102509.97;5097784;27;45719;-76
2021/12/19 08:43:06;;;;;;;;;13.75;10.00;;;;;7.73;77.07;102510.00;5098320;27;45652;-76
2021/12/19 08:48:54;;;;;;;;;10.50;8.50;;;;;7.68;76.98;102510.16;5097990;27;46094;-77
2021/12/19 08:51:19;;;;;;;;;9.00;8.00;;;;;7.66;76.84;102511.09;5098268;27;45610;-77
2021/12/19 08:53:44;;;;;;;;;11.00;9.75;;;;;7.64;77.16;102511.13;5098390;27;45571;-78
2021/12/19 08:56:10;;;;;;;;;10.25;7.00;;;;;7.55;76.83;102504.44;5098525;27;46621;-78
2021/12/19 08:58:37;;;;;;;;;12.50;9.75;;;;;7.57;76.92;102510.44;5098258;27;45890;-76
2021/12/19 09:01:02;;;;;;;;;8.25;7.50;;;;;7.56;76.72;102502.66;5097832;27;45660;-77
2021/12/19 09:03:30;;;;;;;;;10.75;10.00;;;;;7.57;76.86;102509.59;5097691;27;45717;-77
2021/12/19 09:05:56;;;;;;;;;9.75;8.50;;;;;7.56;76.80;102510.50;5097438;27;45539;-78
2021/12/19 09:08:21;;;;;;;;;15.25;10.00;;;;;7.62;76.78;102518.16;5097390;27;46549;-80
2021/12/19 09:10:47;;;;;;;;;10.00;9.00;;;;;7.63;76.83;102514.66;5097081;27;45658;-76
2021/12/19 09:13:12;;;;;;;;;10.75;9.50;;;;;7.59;76.79;102510.41;5097540;27;45602;-79
2021/12/19 09:19:14;;;;;;;;;14.50;10.25;;;;;7.64;76.73;102515.50;5095593;27;45877;-77
2021/12/19 09:21:40;;;;;;;;;13.75;10.00;;;;;7.61;76.71;102518.22;5096881;27;45578;-77
2021/12/19 09:24:05;;;;;;;;;11.75;11.75;;;;;7.62;76.90;102525.97;5097333;27;45681;-77
2021/12/19 09:26:31;;;;;;;;;12.75;11.00;;;;;7.63;76.79;102521.59;5097091;27;47254;-77
2021/12/19 09:28:56;;;;;;;;;16.00;10.00;;;;;7.58;76.82;102513.91;5078375;27;46184;-78
2021/12/19 09:31:22;;;;;;;;;18.00;12.75;;;;;7.55;76.73;102503.59;5096657;27;45670;-77
2021/12/19 09:33:48;;;;;;;;;15.00;11.00;;;;;7.63;76.77;102514.66;5097153;27;45539;-76
2021/12/19 09:36:13;;;;;;;;;14.00;9.75;;;;;7.65;76.74;102515.47;5096292;27;46526;-76
2021/12/19 09:38:41;;;;;;;;;10.75;9.50;;;;;7.59;76.50;102511.28;5096553;27;45996;-76
2021/12/19 09:41:13;;;;;;;;;15.00;11.00;;;;;7.56;76.62;102502.66;5096724;27;45858;-75
2021/12/19 09:43:43;;;;;;;;;10.75;10.50;;;;;7.61;76.64;102510.38;5079445;27;45825;-76
2021/12/19 09:49:32;;;;;;;;;14.25;10.00;;;;;7.62;76.64;102509.47;5096424;27;46104;-76
2021/12/19 09:51:58;;;;;;;;;13.00;10.00;;;;;7.63;76.70;102508.56;5096842;27;45876;-76
2021/12/19 09:54:24;;;;;;;;;12.00;9.50;;;;;7.66;76.52;102506.75;5097067;27;45543;-76
2021/12/19 09:56:49;;;;;;;;;17.50;11.00;;;;;7.68;76.75;102515.38;5096791;27;46987;-77
2021/12/19 09:59:18;;;;;;;;;14.25;12.25;;;;;7.62;76.44;102497.28;5077847;27;47625;-75
2021/12/19 10:01:44;;;;;;;;;24.75;16.25;;;;;7.65;76.58;102505.03;5096229;27;45690;-76
2021/12/19 10:04:41;;;;;;;;;15.50;14.00;;;;;7.65;76.53;102506.78;5096339;27;45566;-77
2021/12/19 10:07:20;;;;;;;;;21.50;15.00;;;;;7.63;76.63;102498.13;5096216;27;46699;-75
2021/12/19 10:09:54;;;;;;;;;22.75;17.75;;;;;7.62;76.60;102497.28;5096037;27;46746;-76
2021/12/19 10:14:54;;;;;;;;;12.25;11.00;;;;;7.53;76.54;102481.91;5096048;27;45790;-75
2021/12/19 10:17:20;;;;;;;;;9.50;6.50;;;;;7.59;76.38;102485.19;5096060;27;46467;-76
2021/12/19 10:19:51;;;;;;;;;5.75;2.50;;;;;7.65;76.40;102485.91;5095875;27;47002;-75
2021/12/19 10:22:40;;;;;;;;;13.50;9.00;;;;;7.66;76.58;102487.63;5096471;27;45787;-74
2021/12/19 10:25:21;;;;;;;;;15.50;9.75;;;;;7.66;76.40;102482.41;5097020;27;46251;-77
2021/12/19 10:27:52;;;;;;;;;10.75;10.00;;;;;7.67;76.40;102487.56;5096308;27;45778;-77
2021/12/19 10:30:40;;;;;;;;;13.25;11.00;;;;;7.58;76.41;102462.63;5096088;27;46062;-76
2021/12/19 10:33:12;;;;;;;;;8.00;7.00;;;;;7.71;76.29;102476.16;5095188;27;45604;-76
2021/12/19 10:35:48;;;;;;;;;13.50;10.00;;;;;7.69;76.53;102464.91;5096066;27;45571;-76
2021/12/19 10:38:26;;;;;;;;;20.25;14.75;;;;;7.76;76.33;102479.50;5095472;27;47587;-78
2021/12/19 10:40:58;;;;;;;;;21.50;17.75;;;;;7.76;76.35;102476.88;5095763;27;45764;-77
2021/12/19 10:43:28;;;;;;;;;18.75;16.50;;;;;7.75;76.25;102484.75;5095614;27;45786;-78
2021/12/19 10:45:58;;;;;;;;;29.75;21.50;;;;;7.69;76.18;102470.13;5095404;27;45799;-77
2021/12/19 10:48:43;;;;;;;;;18.00;15.75;;;;;7.79;76.27;102479.38;5095350;27;45588;-76
2021/12/19 10:51:19;;;;;;;;;12.00;10.75;;;;;7.81;76.33;102479.34;5095117;27;46428;-77
2021/12/19 10:53:53;;;;;;;;;17.00;13.75;;;;;7.73;76.17;102456.09;5095319;27;45894;-79
2021/12/19 10:56:37;;;;;;;;;22.00;14.25;;;;;7.79;76.09;102466.34;5094540;27;45881;-79
2021/12/19 10:59:04;;;;;;;;;14.00;11.00;;;;;7.77;76.06;102462.09;5095519;27;46673;-85
2021/12/19 11:01:31;;;;;;;;;22.00;16.00;;;;;7.77;76.08;102456.88;5094314;27;46083;-79
2021/12/19 11:04:17;;;;;;;;;19.25;12.00;;;;;7.75;76.09;102458.66;5077042;27;45846;-80
2021/12/19 11:06:48;;;;;;;;;17.00;15.00;;;;;7.67;76.07;102444.97;5094652;27;45675;-82
2021/12/19 11:09:24;;;;;;;;;18.00;15.50;;;;;7.60;76.12;102433.88;5094526;27;47542;-84
2021/12/19 11:12:02;;;;;;;;;19.50;16.25;;;;;7.73;75.81;102463.06;5075856;27;48368;-77
2021/12/19 11:14:39;;;;;;;;;14.75;13.00;;;;;7.70;76.03;102450.13;5095292;27;45595;-76
2021/12/19 11:17:04;;;;;;;;;22.25;16.25;;;;;7.68;76.06;102452.75;5076946;27;45857;-75
2021/12/19 11:19:30;;;;;;;;;14.75;13.00;;;;;7.64;75.77;102445.94;5094641;27;46548;-77
2021/12/19 11:21:56;;;;;;;;;18.75;14.00;;;;;7.63;76.03;102449.44;5095174;27;46165;-78
2021/12/19 11:24:24;;;;;;;;;18.00;14.00;;;;;7.65;75.89;102436.34;5095424;27;45611;-76
2021/12/19 11:26:52;;;;;;;;;22.50;17.00;;;;;7.63;75.65;102425.97;5095473;27;45727;-77
2021/12/19 11:29:18;;;;;;;;;14.75;12.00;;;;;7.57;75.78;102416.56;5110522;27;47744;-79
2021/12/19 11:31:49;;;;;;;;;11.00;10.00;;;;;7.63;75.73;102425.97;5076575;27;48407;-78
2021/12/19 11:34:45;;;;;;;;;14.25;12.25;;;;;7.62;75.71;102421.63;5094823;27;45756;-78
2021/12/19 11:37:14;;;;;;;;;14.00;12.25;;;;;7.61;75.59;102419.09;5031965;28;45535;-77
2021/12/19 11:39:42;;;;;;;;;18.00;12.00;;;;;7.59;75.73;102417.38;5031406;28;47344;-76
2021/12/19 11:42:13;;;;;;;;;17.00;13.75;;;;;7.62;75.41;102412.94;5031449;28;45748;-78
2021/12/19 11:47:44;;;;;;;;;17.50;14.25;;;;;7.65;75.65;102405.06;5031367;28;45727;-80
2021/12/19 11:50:24;;;;;;;;;14.75;12.50;;;;;7.65;75.37;102392.00;5032331;28;45640;-78
2021/12/19 11:52:52;;;;;;;;;17.50;14.50;;;;;7.69;75.42;102394.47;5033743;28;45688;-76
2021/12/19 11:55:25;;;;;;;;;18.00;15.25;;;;;7.73;75.43;102382.19;5033147;28;45621;-78
2021/12/19 11:58:09;;;;;;;;;16.25;14.50;;;;;7.75;75.50;102386.47;5032899;28;45726;-78
2021/12/19 12:04:15;;;;;;;;;20.50;16.00;;;;;7.79;75.27;102371.56;5031315;28;46206;-77
2021/12/19 12:06:43;;;;;;;;;20.50;14.75;;;;;7.81;75.43;102372.38;5031117;28;45885;-78
2021/12/19 12:09:25;;;;;;;;;16.75;15.00;;;;;7.82;75.28;102372.34;5031079;28;45774;-79
2021/12/19 12:12:11;;;;;;;;;22.75;17.00;;;;;7.85;75.35;102364.41;5030608;28;46539;-78
2021/12/19 12:14:50;;;;;;;;;14.25;11.75;;;;;7.88;75.25;102364.28;5086894;27;47274;-80
2021/12/19 12:20:38;;;;;;;;;24.25;18.00;;;;;7.92;75.09;102358.09;5094578;27;45659;-77
2021/12/19 12:23:08;;;;;;;;;18.50;15.50;;;;;7.92;75.16;102341.59;5095294;27;46437;-77
2021/12/19 12:25:34;;;;;;;;;19.75;17.25;;;;;7.92;75.10;102352.03;5093241;27;46255;-77
2021/12/19 12:28:08;;;;;;;;;19.25;13.00;;;;;7.93;75.23;102345.91;5093885;27;45740;-79
2021/12/19 12:37:16;;;;;;;;;18.25;17.75;;;;;8.02;75.00;102322.13;5092873;27;45839;-78
2021/12/19 12:39:42;;;;;;;;;25.50;18.50;;;;;8.06;75.20;102320.25;5092950;27;45513;-78
2021/12/19 12:42:11;;;;;;;;;20.25;18.25;;;;;8.06;75.03;102315.03;5093632;27;45648;-79
2021/12/19 12:44:36;;;;;;;;;19.50;18.00;;;;;8.05;75.10;102308.94;5093917;27;46361;-77
2021/12/19 12:47:02;;;;;;;;;27.75;19.75;;;;;8.11;75.05;102307.88;5093480;27;46083;-77
2021/12/19 12:49:34;;;;;;;;;20.25;18.00;;;;;8.14;75.05;102313.03;5093494;27;45827;-78
2021/12/19 12:52:05;;;;;;;;;21.50;17.75;;;;;8.15;75.10;102306.91;5093464;27;45652;-79
2021/12/19 12:54:35;;;;;;;;;16.75;15.75;;;;;8.08;74.95;102294.97;5094078;27;46451;-82
2021/12/19 12:57:05;;;;;;;;;21.00;18.75;;;;;8.21;75.16;102301.44;5094724;27;46154;-83
2021/12/19 12:59:35;;;;;;;;;24.25;18.75;;;;;8.19;74.99;102285.00;5075510;27;45868;-81
2021/12/19 13:04:37;;;;;;;;;22.50;15.00;;;;;8.20;74.93;102290.19;5093492;27;45670;-82
2021/12/19 13:07:10;;;;;;;;;16.75;14.50;;;;;8.21;74.72;102281.41;5075639;27;46238;-81
2021/12/19 13:09:46;;;;;;;;;21.25;17.75;;;;;8.24;74.99;102280.47;5094082;27;45926;-80
2021/12/19 13:12:22;;;;;;;;;19.75;14.25;;;;;8.24;75.09;102277.88;5094173;27;45606;-80
2021/12/19 13:14:50;;;;;;;;;18.25;15.75;;;;;8.22;74.93;102271.84;5093744;27;46431;-80
2021/12/19 13:17:18;;;;;;;;;19.00;16.00;;;;;8.20;75.09;102264.06;5093644;27;46087;-79
2021/12/19 13:19:50;;;;;;;;;19.00;15.50;;;;;8.22;74.86;102277.91;5093146;27;45860;-80
2021/12/19 13:22:18;;;;;;;;;20.25;18.75;;;;;8.09;74.79;102255.75;5093659;27;45745;-78
2021/12/19 13:24:45;;;;;;;;;22.75;18.00;;;;;8.19;75.06;102267.59;5094079;27;45680;-79
2021/12/19 13:27:20;;;;;;;;;23.50;19.00;;;;;8.20;75.10;102263.22;5096858;27;45669;-79
2021/12/19 13:30:00;;;;;;;;;27.00;22.75;;;;;8.18;74.88;102265.88;5097016;27;45739;-79
2021/12/19 13:32:35;;;;;;;;;25.50;20.00;;;;;8.20;74.84;102258.00;5096974;27;45673;-79
2021/12/19 13:35:02;;;;;;;;;23.25;21.00;;;;;8.21;75.01;102257.91;5078650;27;47956;-81
2021/12/19 13:37:33;;;;;;;;;28.75;20.25;;;;;8.19;74.91;102251.94;5096911;27;46173;-80